Time;durP1;ratioP1;P1;durP2;ratioP2;P2;SDS_P1;SDS_P2;PMS_P1;PMS_P2;Temp;Humidity;BMP_temperature;BMP_pressure;BME280_temperature;BME280_humidity;BME280_pressure;Samples;Min_cycle;Max_cycle;Signal;HPM_P1;HPM_P2
2024/02/02 00:04:00;;;;;;;7.88;0.73;;;;;;;4.45;83.78;149788.28;10671438;27;20069;-73
2024/02/02 00:09:05;;;;;;;4.20;1.15;;;;;;;4.34;84.35;149760.03;10671439;27;20039;-72
2024/02/02 00:14:07;;;;;;;2.70;0.98;;;;;;;4.44;84.22;149785.72;10671508;27;20087;-72
2024/02/02 00:19:09;;;;;;;3.72;1.05;;;;;;;4.46;83.87;149789.56;10672308;27;20370;-73
2024/02/02 00:24:11;;;;;;;7.22;0.80;;;;;;;4.40;84.91;149774.16;10672111;27;20044;-72
2024/02/02 00:29:14;;;;;;;9.90;1.50;;;;;;;4.27;85.76;149742.03;10672167;27;20443;-72
2024/02/02 00:34:16;;;;;;;7.28;1.08;;;;;;;4.29;85.97;149748.47;10671089;27;20043;-73
2024/02/02 00:39:18;;;;;;;3.33;1.00;;;;;;;4.26;86.15;149740.75;10671027;27;20095;-72
2024/02/02 00:44:20;;;;;;;4.38;1.10;;;;;;;4.28;85.85;149745.88;10652363;27;20107;-72
2024/02/02 00:49:23;;;;;;;8.73;1.20;;;;;;;4.12;87.23;149703.47;10671487;27;20103;-71
2024/02/02 00:54:26;;;;;;;10.90;1.77;;;;;;;4.12;87.38;149703.47;10635608;27;20062;-73
2024/02/02 00:59:27;;;;;;;3.22;1.20;;;;;;;4.08;87.48;149693.25;10671319;27;20384;-73
2024/02/02 01:04:29;;;;;;;4.95;1.38;;;;;;;4.13;87.63;149707.34;10670499;27;20113;-73
2024/02/02 01:09:31;;;;;;;6.57;1.23;;;;;;;4.08;87.39;149693.25;10671506;27;20077;-72
2024/02/02 01:14:33;;;;;;;4.00;1.20;;;;;;;3.98;88.19;149670.06;10671048;27;20410;-73
2024/02/02 01:19:36;;;;;;;2.70;0.77;;;;;;;3.95;88.53;149661.13;10671467;27;20043;-73
2024/02/02 01:24:38;;;;;;;4.28;1.15;;;;;;;4.05;87.54;149686.78;10678528;27;20035;-72
2024/02/02 01:29:39;;;;;;;3.63;1.20;;;;;;;3.84;89.13;149632.84;10679138;27;20046;-72
2024/02/02 01:34:41;;;;;;;2.80;0.63;;;;;;;4.05;87.91;149688.06;10660127;27;20042;-72
2024/02/02 01:39:44;;;;;;;4.35;1.35;;;;;;;3.98;88.10;149668.78;10678524;27;20129;-72
2024/02/02 01:44:46;;;;;;;2.92;1.35;;;;;;;4.03;87.84;149681.69;10677611;27;20035;-72
2024/02/02 01:49:48;;;;;;;8.30;1.60;;;;;;;3.91;88.15;149652.13;10676853;27;20038;-72
2024/02/02 01:54:51;;;;;;;4.32;0.93;;;;;;;3.89;89.00;149646.97;10676763;27;20039;-72
2024/02/02 01:59:53;;;;;;;3.78;1.23;;;;;;;3.90;89.12;149649.56;10658220;27;20437;-73
2024/02/02 02:04:55;;;;;;;11.30;2.00;;;;;;;3.90;89.12;149648.28;10676236;27;20038;-73
2024/02/02 02:09:57;;;;;;;4.82;1.30;;;;;;;4.04;88.10;149685.50;10658492;27;20506;-73
2024/02/02 02:14:58;;;;;;;3.20;1.30;;;;;;;3.99;88.57;149672.69;10677188;27;20085;-72
2024/02/02 02:20:01;;;;;;;5.35;1.30;;;;;;;4.12;87.79;149704.78;10675605;27;20063;-72
2024/02/02 02:25:03;;;;;;;8.75;1.73;;;;;;;4.01;88.93;149677.78;10658069;27;20039;-72
2024/02/02 02:30:05;;;;;;;5.38;1.33;;;;;;;4.15;88.31;149712.47;10658530;27;20137;-73
2024/02/02 02:35:08;;;;;;;9.07;2.00;;;;;;;4.05;89.23;149688.06;10675424;27;20042;-71
2024/02/02 02:40:10;;;;;;;5.43;1.83;;;;;;;4.16;88.64;149715.09;10675386;27;20451;-71
2024/02/02 02:45:12;;;;;;;4.82;1.17;;;;;;;4.03;89.27;149682.97;10675713;27;20035;-73
2024/02/02 02:50:14;;;;;;;4.35;1.65;;;;;;;3.96;89.52;149663.69;10675005;27;20070;-72
2024/02/02 02:55:16;;;;;;;10.45;1.55;;;;;;;3.93;89.63;149655.97;10673271;27;20054;-72
2024/02/02 03:00:19;;;;;;;5.82;1.20;;;;;;;4.08;88.64;149693.25;10655743;27;20058;-73
2024/02/02 03:05:21;;;;;;;4.65;1.60;;;;;;;3.78;91.08;149618.72;10674825;27;20410;-72
2024/02/02 03:10:26;;;;;;;8.80;1.52;;;;;;;4.07;88.83;149691.91;10674576;27;20049;-72
2024/02/02 03:15:31;;;;;;;7.57;1.90;;;;;;;4.07;88.42;149690.63;10656198;27;20095;-72
2024/02/02 03:20:33;;;;;;;4.63;2.10;;;;;;;3.90;90.00;149649.56;10672757;27;20039;-72
2024/02/02 03:25:35;;;;;;;3.28;1.42;;;;;;;4.04;88.63;149685.50;10674045;27;20555;-72
2024/02/02 03:30:37;;;;;;;9.07;2.30;;;;;;;3.88;89.70;149643.13;10672939;27;20387;-72
2024/02/02 03:35:39;;;;;;;6.20;2.30;;;;;;;4.05;88.43;149686.78;10672420;27;20538;-72
2024/02/02 03:40:41;;;;;;;10.30;2.58;;;;;;;3.89;89.52;149645.69;10672259;27;20060;-72
2024/02/02 03:45:43;;;;;;;7.22;1.80;;;;;;;4.03;88.74;149681.69;10672322;27;20045;-73
2024/02/02 03:50:45;;;;;;;6.45;2.65;;;;;;;4.00;88.42;149673.97;10672331;27;20402;-72
2024/02/02 03:55:46;;;;;;;6.28;1.75;;;;;;;3.94;89.45;149658.50;10653732;27;20514;-72
2024/02/02 04:00:48;;;;;;;10.57;2.53;;;;;;;4.01;88.67;149677.78;10653962;27;20091;-72
2024/02/02 04:05:50;;;;;;;6.30;2.50;;;;;;;3.92;88.77;149653.41;10673030;27;20043;-72
2024/02/02 04:10:52;;;;;;;8.15;2.40;;;;;;;3.98;88.09;149670.06;10674533;27;20042;-74
2024/02/02 04:15:54;;;;;;;3.72;2.17;;;;;;;4.08;87.69;149694.50;10673815;27;20065;-72
2024/02/02 04:20:56;;;;;;;6.53;2.00;;;;;;;3.88;89.08;149643.13;10672360;27;20038;-72
2024/02/02 04:25:58;;;;;;;6.63;2.35;;;;;;;3.82;89.16;149627.72;10671843;27;20042;-73
2024/02/02 04:31:00;;;;;;;5.28;3.35;;;;;;;3.77;89.45;149617.44;10670824;27;20051;-71
2024/02/02 04:36:03;;;;;;;9.82;2.90;;;;;;;3.76;89.72;149614.88;10651634;27;20042;-72
2024/02/02 04:41:05;;;;;;;8.43;2.38;;;;;;;3.79;89.48;149621.28;10671661;27;20041;-75
2024/02/02 04:46:07;;;;;;;6.80;2.70;;;;;;;3.84;88.90;149634.13;10652714;27;20540;-73
2024/02/02 04:51:09;;;;;;;9.00;3.08;;;;;;;3.67;89.48;149590.44;10651843;27;20095;-73
2024/02/02 04:56:11;;;;;;;5.53;2.53;;;;;;;3.65;89.66;149586.63;10672537;27;20042;-72
2024/02/02 05:01:13;;;;;;;7.97;2.97;;;;;;;3.66;89.10;149587.91;10660479;27;20095;-72
2024/02/02 05:06:16;;;;;;;6.38;3.22;;;;;;;3.61;89.47;149575.06;10659476;27;20093;-72
2024/02/02 05:11:18;;;;;;;10.85;3.13;;;;;;;3.56;89.31;149563.50;10677453;27;20046;-72
2024/02/02 05:16:20;;;;;;;8.77;3.03;;;;;;;3.64;88.37;149582.78;10660770;27;20137;-73
2024/02/02 05:21:22;;;;;;;8.93;3.13;;;;;;;3.53;89.52;149555.78;10660577;27;20039;-72
2024/02/02 05:26:24;;;;;;;7.65;3.28;;;;;;;3.75;88.29;149611.00;10660064;27;20049;-72
2024/02/02 05:31:26;;;;;;;14.40;2.92;;;;;;;3.75;87.27;149611.00;10678760;27;20161;-73
2024/02/02 05:36:27;;;;;;;6.45;2.53;;;;;;;3.73;87.38;149605.88;10678034;27;20087;-72
2024/02/02 05:41:29;;;;;;;9.07;2.95;;;;;;;3.80;86.43;149625.13;10678163;27;20076;-72
2024/02/02 05:46:31;;;;;;;4.88;3.10;;;;;;;3.89;85.97;149646.97;10677244;27;20043;-72
2024/02/02 05:51:36;;;;;;;5.10;2.70;;;;;;;3.72;86.83;149603.34;10677237;27;20050;-72
2024/02/02 05:56:39;;;;;;;7.57;2.88;;;;;;;3.72;86.95;149603.34;10677340;27;20442;-71
2024/02/02 06:01:41;;;;;;;6.45;2.30;;;;;;;3.67;86.40;149590.44;10657793;27;20057;-73
2024/02/02 06:06:43;;;;;;;8.95;2.60;;;;;;;3.84;85.35;149632.84;10657677;27;20081;-73
2024/02/02 06:11:45;;;;;;;6.25;2.63;;;;;;;3.60;86.75;149572.50;10675864;27;20042;-72
2024/02/02 06:16:48;;;;;;;7.63;2.83;;;;;;;3.60;86.71;149573.78;10675104;27;20077;-72
2024/02/02 06:21:50;;;;;;;9.45;4.05;;;;;;;3.59;86.47;149569.94;10673910;27;20527;-72
2024/02/02 06:26:51;;;;;;;7.15;3.05;;;;;;;3.55;86.42;149560.94;10675652;27;20134;-73
2024/02/02 06:31:53;;;;;;;10.85;3.15;;;;;;;3.56;86.51;149562.22;10656650;27;20042;-72
2024/02/02 06:36:55;;;;;;;8.40;3.03;;;;;;;3.65;85.76;149586.63;10675123;27;20426;-73
2024/02/02 06:41:57;;;;;;;6.95;3.40;;;;;;;3.67;85.39;149590.44;10675842;27;20083;-73
2024/02/02 06:46:59;;;;;;;12.48;3.78;;;;;;;3.69;85.44;149595.63;10675386;27;20046;-73
2024/02/02 06:52:01;;;;;;;8.30;3.40;;;;;;;3.79;84.49;149622.56;10675313;27;20410;-72
2024/02/02 06:57:03;;;;;;;8.75;3.70;;;;;;;3.82;84.75;149629.00;10673807;27;20535;-72
2024/02/02 07:02:18;;;;;;;5.70;2.85;;;;;;;3.88;84.86;149644.41;10674112;27;20030;-73
2024/02/02 07:07:20;;;;;;;7.45;3.72;;;;;;;3.97;84.26;149667.50;10675310;27;20058;-72
2024/02/02 07:12:25;;;;;;;5.70;3.50;;;;;;;4.03;83.95;149681.69;10673452;27;20049;-72
2024/02/02 07:17:40;;;;;;;7.32;3.80;;;;;;;4.07;83.68;149691.91;10674863;27;20091;-73
2024/02/02 07:22:42;;;;;;;5.25;3.83;;;;;;;4.17;83.00;149716.34;10674384;27;20047;-73
2024/02/02 07:27:54;;;;;;;6.45;3.33;;;;;;;4.23;82.38;149731.75;10672515;27;20039;-73
2024/02/02 07:32:57;;;;;;;6.88;2.80;;;;;;;4.32;81.24;149753.59;10672738;27;20099;-73
2024/02/02 07:38:06;;;;;;;5.55;3.80;;;;;;;4.36;80.73;149765.16;10673021;27;20103;-73
2024/02/02 07:43:08;;;;;;;8.68;4.15;;;;;;;4.45;80.32;149788.28;10655595;27;20038;-73
2024/02/02 07:48:10;;;;;;;6.75;3.30;;;;;;;4.51;80.04;149803.69;10671561;27;20051;-73
2024/02/02 07:53:12;;;;;;;9.90;3.47;;;;;;;4.59;79.98;149822.97;10653576;27;20039;-73
2024/02/02 07:58:16;;;;;;;5.72;3.35;;;;;;;4.70;79.02;149850.00;10671517;27;20095;-72
2024/02/02 08:03:19;;;;;;;7.22;3.42;;;;;;;4.65;79.94;149838.44;10669309;27;20043;-72
2024/02/02 08:08:21;;;;;;;11.10;3.63;;;;;;;4.84;78.61;149885.97;10650546;27;20054;-73
2024/02/02 08:13:23;;;;;;;7.78;3.55;;;;;;;4.95;78.33;149912.94;10652193;27;20050;-73
2024/02/02 08:18:25;;;;;;;7.47;3.80;;;;;;;5.06;77.74;149941.25;10671549;27;20039;-72
2024/02/02 08:23:27;;;;;;;9.23;3.35;;;;;;;5.11;77.36;149954.09;10670586;27;20103;-73
2024/02/02 08:28:29;;;;;;;8.63;3.42;;;;;;;5.11;78.36;149952.81;10671001;27;20046;-73
2024/02/02 08:33:43;;;;;;;4.60;2.67;;;;;;;5.28;76.44;149996.53;10670521;27;20043;-72
2024/02/02 08:38:45;;;;;;;7.20;3.05;;;;;;;5.38;75.67;150020.97;10671488;27;20402;-72
2024/02/02 08:43:49;;;;;;;10.73;3.15;;;;;;;5.24;77.28;149987.53;10652145;27;20030;-73
2024/02/02 08:48:51;;;;;;;7.50;2.92;;;;;;;5.41;74.66;150028.69;10671205;27;20455;-72
2024/02/02 08:54:00;;;;;;;5.88;2.45;;;;;;;5.31;76.09;150005.53;10652313;27;20095;-72
2024/02/02 08:59:25;;;;;;;5.53;2.78;;;;;;;5.45;74.92;150038.97;10670958;27;20078;-71
2024/02/02 09:04:56;;;;;;;7.43;2.75;;;;;;;5.54;74.69;150063.41;10637816;27;20041;-72
2024/02/02 09:09:58;;;;;;;7.18;3.05;;;;;;;5.60;74.38;150076.25;10635380;27;20041;-73
2024/02/02 09:15:01;;;;;;;8.57;3.70;;;;;;;5.72;74.41;150108.41;10669524;27;20066;-72
2024/02/02 09:20:03;;;;;;;9.27;3.15;;;;;;;5.74;73.42;150113.53;10650120;27;20121;-72
2024/02/02 09:25:10;;;;;;;4.05;2.22;;;;;;;5.97;73.13;150171.47;10669149;27;20035;-72
2024/02/02 09:30:20;;;;;;;3.67;2.05;;;;;;;6.04;71.86;150189.50;10667296;27;20042;-72
2024/02/02 09:35:37;;;;;;;5.43;2.67;;;;;;;6.17;71.23;150221.69;10668878;27;20043;-72
2024/02/02 09:40:57;;;;;;;6.28;1.83;;;;;;;6.22;71.53;150233.25;10651433;27;20502;-73
2024/02/02 09:46:11;;;;;;;5.65;2.35;;;;;;;6.25;69.93;150241.00;10656846;27;20083;-72
2024/02/02 09:51:27;;;;;;;5.22;2.25;;;;;;;6.28;70.05;150249.97;10675581;27;20043;-73
2024/02/02 09:57:14;;;;;;;3.50;2.20;;;;;;;6.15;71.51;150216.50;10657489;27;20490;-73
2024/02/02 10:02:48;;;;;;;4.85;2.30;;;;;;;6.01;72.45;150180.47;10636531;27;20046;-73
2024/02/02 10:08:26;;;;;;;5.53;1.50;;;;;;;6.01;72.66;150181.75;10677923;27;20091;-72
2024/02/02 10:13:57;;;;;;;2.83;2.30;;;;;;;5.85;74.22;150140.59;10677305;27;20547;-72
2024/02/02 10:19:18;;;;;;;4.25;2.35;;;;;;;5.79;75.89;150125.13;10676507;27;20070;-72
2024/02/02 10:24:49;;;;;;;3.88;1.20;;;;;;;5.54;79.18;150063.41;10676980;27;20054;-73
2024/02/02 10:29:51;;;;;;;2.55;1.20;;;;;;;5.32;81.33;150006.81;10640459;27;20103;-71
2024/02/02 10:34:59;;;;;;;4.05;1.80;;;;;;;5.39;80.45;150024.78;10677240;27;20039;-73
2024/02/02 10:40:17;;;;;;;5.18;1.67;;;;;;;5.51;79.68;150055.66;10674317;27;20043;-73
2024/02/02 10:45:22;;;;;;;3.40;1.73;;;;;;;5.57;79.53;150071.09;10673935;27;20140;-72
2024/02/02 10:50:36;;;;;;;3.30;1.48;;;;;;;5.55;79.26;150064.69;10656720;27;20379;-72
2024/02/02 10:56:03;;;;;;;4.65;1.92;;;;;;;5.61;81.01;150078.81;10674783;27;20064;-73
2024/02/02 11:01:25;;;;;;;4.93;2.33;;;;;;;5.67;80.79;150095.56;10674637;27;20035;-72
2024/02/02 11:06:47;;;;;;;5.90;2.22;;;;;;;5.67;82.08;150095.56;10674062;27;20535;-72
2024/02/02 11:12:00;;;;;;;5.35;1.65;;;;;;;5.72;80.97;150108.41;10657040;27;20100;-72
2024/02/02 11:17:09;;;;;;;4.68;1.50;;;;;;;5.82;80.23;150132.84;10676357;27;20053;-72
2024/02/02 11:22:37;;;;;;;34.13;11.15;;;;;;;5.88;81.05;150147.00;10675943;27;20043;-72
2024/02/02 11:27:57;;;;;;;12.68;4.55;;;;;;;5.87;79.69;150144.41;10675297;27;20067;-72
2024/02/02 11:33:18;;;;;;;4.18;3.65;;;;;;;6.03;79.13;150185.66;10675857;27;20079;-72
2024/02/02 11:38:38;;;;;;;1.98;1.38;;;;;;;6.02;79.70;150183.03;10674579;27;20125;-73
2024/02/02 11:43:43;;;;;;;3.97;1.30;;;;;;;6.14;79.24;150213.94;10675279;27;20042;-74
2024/02/02 11:48:50;;;;;;;3.97;2.42;;;;;;;6.19;79.29;150225.53;10656215;27;20117;-73
2024/02/02 11:53:55;;;;;;;4.13;1.60;;;;;;;6.32;77.75;150258.97;10675003;27;20391;-74
2024/02/02 11:59:08;;;;;;;2.47;1.65;;;;;;;6.24;78.63;150238.38;10674928;27;20053;-72
2024/02/02 12:04:34;;;;;;;4.20;1.05;;;;;;;6.36;76.29;150268.00;10673695;27;20067;-72
2024/02/02 12:09:46;;;;;;;2.00;1.20;;;;;;;6.46;76.70;150295.03;10672967;27;20127;-73
2024/02/02 12:14:53;;;;;;;3.47;1.27;;;;;;;6.34;75.49;150264.16;10658532;27;20387;-72
2024/02/02 12:19:58;;;;;;;3.05;1.17;;;;;;;6.55;74.01;150316.88;10611397;27;20054;-72
2024/02/02 12:25:04;;;;;;;0.98;0.80;;;;;;;6.62;72.05;150333.63;10611846;27;20433;-73
2024/02/02 12:30:10;;;;;;;1.88;1.05;;;;;;;6.70;70.88;150355.53;10629615;27;20047;-74
2024/02/02 12:35:12;;;;;;;2.43;0.93;;;;;;;6.80;69.45;150379.97;10630073;27;20073;-73
2024/02/02 12:40:22;;;;;;;3.08;1.90;;;;;;;6.95;65.89;150418.63;10611284;27;20555;-74
2024/02/02 12:45:24;;;;;;;2.10;1.13;;;;;;;6.97;65.08;150423.75;10628872;28;20402;-72
2024/02/02 12:50:26;;;;;;;3.15;0.90;;;;;;;7.05;63.92;150443.09;10629242;27;20050;-73
2024/02/02 12:55:28;;;;;;;2.05;0.63;;;;;;;7.25;62.79;150493.28;10628541;28;20054;-73
2024/02/02 13:00:30;;;;;;;2.08;1.00;;;;;;;7.15;62.64;150467.53;10626903;27;20043;-73
2024/02/02 13:05:32;;;;;;;2.75;1.10;;;;;;;7.14;61.87;150466.25;10626526;28;20046;-73
2024/02/02 13:10:45;;;;;;;2.08;0.90;;;;;;;7.28;62.02;150501.03;10627325;27;20039;-73
2024/02/02 13:15:47;;;;;;;2.97;1.30;;;;;;;7.32;61.47;150512.59;10609168;28;20135;-73
2024/02/02 13:20:52;;;;;;;1.85;0.60;;;;;;;7.40;61.51;150530.66;10617182;27;20043;-73
2024/02/02 13:25:58;;;;;;;1.75;0.88;;;;;;;7.37;63.42;150524.19;10618302;27;20108;-73
2024/02/02 13:31:04;;;;;;;4.97;3.87;;;;;;;7.29;65.78;150504.88;10636116;27;20069;-73
2024/02/02 13:36:09;;;;;;;2.20;0.80;;;;;;;7.48;64.70;150551.22;10636401;27;20100;-74
2024/02/02 13:41:11;;;;;;;1.85;0.45;;;;;;;7.43;65.28;150538.34;10637379;27;20043;-74
2024/02/02 13:46:13;;;;;;;1.13;0.50;;;;;;;7.58;62.91;150578.31;10636915;27;20035;-74
2024/02/02 13:51:17;;;;;;;3.30;0.75;;;;;;;7.56;62.73;150571.84;10617541;27;20399;-74
2024/02/02 13:56:22;;;;;;;2.47;0.77;;;;;;;7.64;60.25;150591.19;10633971;27;20384;-73
2024/02/02 14:01:28;;;;;;;3.28;0.60;;;;;;;7.58;60.51;150577.03;10632822;27;20050;-73
2024/02/02 14:06:31;;;;;;;1.43;0.67;;;;;;;7.54;60.51;150568.00;10613775;27;20047;-72
2024/02/02 14:11:33;;;;;;;3.95;0.80;;;;;;;7.55;59.90;150570.56;10632617;27;20050;-74
2024/02/02 14:16:35;;;;;;;2.30;0.55;;;;;;;7.68;60.12;150602.78;10613246;27;20487;-74
2024/02/02 14:21:38;;;;;;;1.77;0.70;;;;;;;7.65;59.62;150595.03;10632822;27;20118;-73
2024/02/02 14:26:53;;;;;;;2.13;0.70;;;;;;;7.63;59.42;150589.91;10632308;27;20043;-74
2024/02/02 14:31:57;;;;;;;4.18;0.80;;;;;;;7.58;60.27;150578.31;10633061;27;20118;-75
2024/02/02 14:36:59;;;;;;;2.22;0.80;;;;;;;7.54;60.77;150568.00;10634762;27;20074;-73
2024/02/02 14:42:02;;;;;;;2.58;0.90;;;;;;;7.57;61.33;150575.75;10632865;27;20046;-73
2024/02/02 14:47:06;;;;;;;7.90;2.17;;;;;;;7.52;61.78;150562.81;10613528;27;20439;-73
2024/02/02 14:52:08;;;;;;;3.85;1.27;;;;;;;7.49;61.92;150553.84;10612895;27;20052;-73
2024/02/02 14:57:10;;;;;;;2.30;1.13;;;;;;;7.31;62.26;150510.03;10631787;27;20127;-73
2024/02/02 15:02:13;;;;;;;2.05;0.70;;;;;;;7.60;60.97;150582.16;10631384;27;20039;-74
2024/02/02 15:07:15;;;;;;;2.95;1.02;;;;;;;7.56;60.74;150571.84;10631367;27;20043;-73
2024/02/02 15:12:18;;;;;;;2.88;0.90;;;;;;;7.54;61.63;150566.72;10633164;27;20073;-73
2024/02/02 15:17:20;;;;;;;2.45;0.75;;;;;;;7.67;61.15;150598.94;10631362;27;20043;-74
2024/02/02 15:22:22;;;;;;;2.28;0.77;;;;;;;7.77;61.74;150624.69;10612492;27;20418;-73
2024/02/02 15:27:24;;;;;;;3.17;0.82;;;;;;;7.80;61.44;150632.44;10630956;27;20521;-73
2024/02/02 15:32:27;;;;;;;3.33;0.88;;;;;;;7.70;63.31;150607.97;10611720;27;20131;-72
2024/02/02 15:37:29;;;;;;;2.03;0.82;;;;;;;7.68;63.30;150602.78;10628843;27;20043;-74
2024/02/02 15:42:30;;;;;;;3.17;1.13;;;;;;;7.78;63.32;150628.53;10609876;27;20043;-73
2024/02/02 15:47:37;;;;;;;7.25;0.73;;;;;;;7.72;64.40;150611.81;10611516;27;20121;-75
2024/02/02 15:52:39;;;;;;;4.22;1.10;;;;;;;7.80;64.39;150632.44;10611365;27;20039;-74
2024/02/02 15:57:41;;;;;;;2.50;0.90;;;;;;;7.75;64.55;150619.53;10629796;27;20042;-73
2024/02/02 16:02:43;;;;;;;3.90;1.30;;;;;;;7.69;65.23;150604.06;10610156;27;20410;-72
2024/02/02 16:07:45;;;;;;;2.80;0.95;;;;;;;7.59;66.48;150580.88;10609459;27;20039;-73
2024/02/02 16:12:47;;;;;;;2.75;1.00;;;;;;;7.57;66.67;150575.75;10609093;27;20036;-73
2024/02/02 16:17:49;;;;;;;1.85;1.00;;;;;;;7.57;67.39;150575.75;10609054;27;20100;-73
2024/02/02 16:22:51;;;;;;;4.43;1.10;;;;;;;7.55;67.97;150569.28;10626970;27;20046;-72
2024/02/02 16:27:56;;;;;;;2.38;1.25;;;;;;;7.47;68.61;150549.94;10609431;27;20047;-73
2024/02/02 16:32:57;;;;;;;3.70;1.00;;;;;;;7.55;68.87;150570.56;10626488;27;20092;-74
2024/02/02 16:38:03;;;;;;;3.97;1.20;;;;;;;7.48;69.68;150552.56;10626863;27;20049;-75
2024/02/02 16:43:05;;;;;;;2.88;1.10;;;;;;;7.53;69.88;150565.44;10625940;27;20043;-73
2024/02/02 16:48:08;;;;;;;3.75;1.40;;;;;;;7.58;69.82;150577.03;10626317;28;20043;-73
2024/02/02 16:53:10;;;;;;;3.97;1.30;;;;;;;7.56;70.06;150571.84;10629602;27;20036;-73
2024/02/02 16:58:12;;;;;;;3.22;1.48;;;;;;;7.64;70.34;150591.19;10635560;27;20578;-74
2024/02/02 17:03:14;;;;;;;3.58;1.85;;;;;;;7.61;70.51;150583.44;10658412;27;20501;-74
2024/02/02 17:08:16;;;;;;;5.85;1.33;;;;;;;7.50;71.35;150557.69;10676520;27;20043;-74
2024/02/02 17:13:18;;;;;;;5.18;1.50;;;;;;;7.41;72.77;150533.22;10674836;27;20031;-72
2024/02/02 17:18:20;;;;;;;2.65;1.48;;;;;;;7.37;73.24;150524.19;10676955;27;20039;-74
2024/02/02 17:23:22;;;;;;;3.83;1.67;;;;;;;7.59;72.50;150579.59;10658288;27;20098;-74
2024/02/02 17:28:24;;;;;;;3.30;1.13;;;;;;;7.66;72.72;150597.66;10675686;27;20051;-73
2024/02/02 17:33:28;;;;;;;2.80;1.60;;;;;;;7.63;72.94;150588.63;10657794;27;20074;-72
2024/02/02 17:38:30;;;;;;;6.50;3.85;;;;;;;7.66;73.01;150597.66;10677012;27;20466;-73
2024/02/02 17:43:32;;;;;;;2.90;1.40;;;;;;;7.65;73.60;150593.75;10675557;27;20033;-74
2024/02/02 17:48:34;;;;;;;4.63;2.08;;;;;;;7.62;74.47;150587.34;10675615;27;20034;-74
2024/02/02 17:53:39;;;;;;;3.40;2.42;;;;;;;7.81;73.85;150636.28;10676135;27;20091;-73
2024/02/02 17:58:41;;;;;;;4.85;2.25;;;;;;;7.79;74.29;150631.13;10677857;27;20035;-75
2024/02/02 18:03:44;;;;;;;8.13;4.38;;;;;;;7.79;74.80;150629.81;10676471;27;20408;-74
2024/02/02 18:08:46;;;;;;;2.80;1.92;;;;;;;7.65;75.58;150595.03;10657533;27;20049;-74
2024/02/02 18:13:48;;;;;;;5.95;3.20;;;;;;;7.67;76.18;150598.94;10675683;27;20103;-73
2024/02/02 18:18:50;;;;;;;6.22;4.55;;;;;;;7.73;76.19;150614.38;10675152;27;20062;-73
2024/02/02 18:23:52;;;;;;;2.15;1.95;;;;;;;7.69;76.48;150604.06;10673987;27;20035;-73
2024/02/02 18:28:54;;;;;;;3.85;2.35;;;;;;;7.74;76.63;150618.22;10656474;27;20129;-73
2024/02/02 18:33:55;;;;;;;2.40;1.70;;;;;;;7.85;76.62;150645.31;10676590;27;20422;-73
2024/02/02 18:38:57;;;;;;;4.82;2.15;;;;;;;7.82;76.84;150637.56;10675346;27;20166;-75
2024/02/02 18:44:01;;;;;;;3.20;1.52;;;;;;;7.65;77.82;150595.03;10674829;27;20039;-75
2024/02/02 18:49:04;;;;;;;3.88;2.30;;;;;;;7.75;77.48;150619.53;10656344;27;20513;-75
2024/02/02 18:54:11;;;;;;;3.67;2.13;;;;;;;7.76;77.98;150623.41;10674534;27;20031;-74
2024/02/02 18:59:12;;;;;;;3.03;1.53;;;;;;;7.73;77.88;150614.38;10655913;27;20433;-73
2024/02/02 19:04:14;;;;;;;4.05;1.98;;;;;;;7.69;78.50;150605.34;10674295;27;20079;-74
2024/02/02 19:09:16;;;;;;;1.95;1.20;;;;;;;7.62;79.60;150587.34;10675439;27;20041;-75
2024/02/02 19:14:21;;;;;;;3.90;1.88;;;;;;;7.58;79.88;150577.03;10674317;27;20038;-74
2024/02/02 19:19:23;;;;;;;1.98;1.40;;;;;;;7.41;81.02;150533.22;10672919;27;20057;-74
2024/02/02 19:24:25;;;;;;;3.65;1.75;;;;;;;7.51;80.35;150560.25;10653566;27;20110;-74
2024/02/02 19:29:27;;;;;;;2.75;1.38;;;;;;;7.67;79.68;150598.94;10672836;27;20042;-75
2024/02/02 19:34:29;;;;;;;3.53;1.45;;;;;;;7.55;80.04;150570.56;10638219;27;20073;-75
2024/02/02 19:39:31;;;;;;;1.80;1.17;;;;;;;7.53;80.42;150564.16;10673086;27;20049;-75
2024/02/02 19:44:33;;;;;;;2.85;1.30;;;;;;;7.89;78.84;150654.31;10637340;27;20043;-74
2024/02/02 19:49:35;;;;;;;2.72;1.20;;;;;;;8.07;77.95;150700.72;10654861;27;20145;-75
2024/02/02 19:54:38;;;;;;;2.25;1.10;;;;;;;8.08;78.00;150704.56;10638335;27;20102;-75
2024/02/02 19:59:40;;;;;;;2.88;1.20;;;;;;;8.31;77.01;150761.25;10673928;27;20035;-74
2024/02/02 20:04:42;;;;;;;1.95;1.25;;;;;;;8.42;75.76;150789.69;10653521;27;20164;-76
2024/02/02 20:09:44;;;;;;;4.65;1.30;;;;;;;8.47;75.22;150801.28;10672406;27;20053;-74
2024/02/02 20:14:46;;;;;;;0.80;0.80;;;;;;;8.46;75.04;150800.00;10672378;27;20486;-74
2024/02/02 20:19:48;;;;;;;2.90;0.80;;;;;;;8.50;74.02;150810.31;10653045;27;20039;-74
2024/02/02 20:24:51;;;;;;;3.35;1.05;;;;;;;8.46;73.48;150800.00;10671636;27;20550;-75
2024/02/02 20:29:53;;;;;;;2.60;1.48;;;;;;;8.52;73.30;150814.19;10652831;27;20054;-74
2024/02/02 20:34:55;;;;;;;1.50;1.10;;;;;;;8.47;73.55;150801.28;10653154;27;20414;-74
2024/02/02 20:39:58;;;;;;;2.42;1.45;;;;;;;8.44;73.22;150794.81;10670435;27;20474;-75
2024/02/02 20:45:00;;;;;;;3.60;1.20;;;;;;;8.41;72.49;150785.78;10652219;27;20114;-74
2024/02/02 20:50:07;;;;;;;2.45;1.10;;;;;;;8.26;73.56;150748.38;10671105;27;20042;-75
2024/02/02 20:55:13;;;;;;;2.28;1.27;;;;;;;8.27;73.10;150752.22;10671441;27;20426;-75
2024/02/02 21:00:17;;;;;;;2.67;1.20;;;;;;;8.19;72.84;150730.31;10670658;27;20047;-74
2024/02/02 21:05:19;;;;;;;3.03;1.40;;;;;;;8.35;71.71;150772.88;10670186;27;20031;-75
2024/02/02 21:10:21;;;;;;;2.17;1.45;;;;;;;8.19;72.44;150730.31;10670326;27;20450;-74
2024/02/02 21:15:25;;;;;;;3.15;1.33;;;;;;;8.18;72.33;150727.75;10669234;27;20045;-74
2024/02/02 21:20:32;;;;;;;2.75;1.10;;;;;;;8.09;72.25;150705.84;10669246;27;20050;-74
2024/02/02 21:25:34;;;;;;;;;;;;;;;7.85;73.90;150645.31;10669962;27;20069;-74
2024/02/02 21:30:36;;;;;;;2.83;1.20;;;;;;;7.95;73.79;150671.06;10669532;27;19919;-74
2024/02/02 21:35:38;;;;;;;2.90;1.33;;;;;;;8.05;72.83;150696.81;10670856;27;20069;-74
2024/02/02 21:40:40;;;;;;;2.80;1.40;;;;;;;7.99;73.32;150681.38;10656052;27;20092;-73
2024/02/02 21:45:41;;;;;;;4.05;1.48;;;;;;;8.00;73.62;150683.94;10677431;27;20402;-73
2024/02/02 21:50:43;;;;;;;2.92;1.45;;;;;;;8.05;73.99;150696.81;10677244;27;20034;-73
2024/02/02 21:55:45;;;;;;;2.40;1.90;;;;;;;8.00;74.65;150683.94;10676070;27;20092;-74
2024/02/02 22:00:48;;;;;;;6.57;2.30;;;;;;;8.04;75.04;150694.25;10675569;27;20046;-73
2024/02/02 22:05:50;;;;;;;4.82;2.40;;;;;;;7.95;76.07;150671.06;10675466;27;20035;-74
2024/02/02 22:10:51;;;;;;;3.67;2.47;;;;;;;8.00;76.23;150682.66;10658677;27;20060;-73
2024/02/02 22:15:54;;;;;;;4.32;2.53;;;;;;;8.11;75.92;150709.75;10676420;27;20439;-73
2024/02/02 22:20:55;;;;;;;3.47;2.90;;;;;;;7.94;77.03;150668.50;10640982;27;20053;-74
2024/02/02 22:25:57;;;;;;;3.33;2.20;;;;;;;8.02;76.81;150689.13;10676360;27;20088;-74
2024/02/02 22:31:04;;;;;;;3.28;2.72;;;;;;;7.92;77.03;150662.03;10674965;27;20077;-74
2024/02/02 22:36:06;;;;;;;2.67;1.80;;;;;;;7.99;77.23;150680.09;10658373;27;20041;-74
2024/02/02 22:41:27;;;;;;;3.42;2.22;;;;;;;7.92;77.55;150663.31;10657007;27;20043;-74
2024/02/02 22:46:35;;;;;;;3.22;2.50;;;;;;;7.80;78.76;150632.44;10676217;27;20047;-74
2024/02/02 22:51:48;;;;;;;3.38;1.92;;;;;;;7.82;79.09;150637.56;10675889;27;20092;-74
2024/02/02 22:56:50;;;;;;;3.70;2.40;;;;;;;7.86;79.04;150646.59;10675833;27;20068;-72
2024/02/02 23:01:52;;;;;;;3.35;2.80;;;;;;;7.84;79.63;150644.00;10656698;27;20513;-73
2024/02/02 23:06:54;;;;;;;3.80;2.53;;;;;;;7.84;80.24;150644.00;10657253;27;20039;-74
2024/02/02 23:11:56;;;;;;;4.13;3.15;;;;;;;7.88;80.37;150651.72;10675339;27;20103;-74
2024/02/02 23:16:58;;;;;;;4.90;2.92;;;;;;;7.86;81.03;150646.59;10674665;27;20432;-74
2024/02/02 23:21:59;;;;;;;4.05;2.13;;;;;;;7.84;81.49;150642.72;10674629;27;20426;-74
2024/02/02 23:27:02;;;;;;;2.95;2.65;;;;;;;7.94;81.22;150668.50;10674189;27;20088;-75
2024/02/02 23:32:04;;;;;;;4.57;3.03;;;;;;;7.79;81.99;150629.81;10674386;27;20043;-74
2024/02/02 23:37:06;;;;;;;4.13;3.05;;;;;;;7.89;81.77;150655.59;10673232;27;20039;-74